Time;durP1;ratioP1;P1;durP2;ratioP2;P2;SDS_P1;SDS_P2;PMS_P1;PMS_P2;Temp;Humidity;BMP_temperature;BMP_pressure;BME280_temperature;BME280_humidity;BME280_pressure;Samples;Min_cycle;Max_cycle;Signal;HPM_P1;HPM_P2
2023/01/18 00:00:41;;;;;;;3.97;1.70;;;;;;;15.51;56.24;97290.31;5071698;28;20481;-53
2023/01/18 00:03:11;;;;;;;3.90;1.48;;;;;;;15.49;55.95;97303.13;5071687;28;20041;-53
2023/01/18 00:05:42;;;;;;;2.53;1.30;;;;;;;15.46;56.03;97299.78;5071659;28;20056;-53
2023/01/18 00:08:12;;;;;;;3.70;1.63;;;;;;;15.42;55.76;97301.19;5070315;28;20072;-54
2023/01/18 00:10:40;;;;;;;3.17;1.50;;;;;;;15.42;56.12;97293.13;5071670;28;20072;-52
2023/01/18 00:13:09;;;;;;;3.13;1.48;;;;;;;15.39;56.00;97274.72;5071541;28;20094;-54
2023/01/18 00:15:38;;;;;;;3.40;1.60;;;;;;;15.33;55.73;97259.38;5070306;28;20069;-53
2023/01/18 00:18:06;;;;;;;4.00;1.55;;;;;;;15.35;56.08;97254.69;5071545;28;20130;-54
2023/01/18 00:20:34;;;;;;;4.10;1.80;;;;;;;15.32;56.18;97249.66;5071579;28;20055;-51
2023/01/18 00:23:04;;;;;;;4.15;1.63;;;;;;;15.27;56.03;97235.19;5071361;28;20060;-52
2023/01/18 00:25:32;;;;;;;3.92;1.60;;;;;;;15.23;56.10;97224.00;5071547;28;20052;-53
2023/01/18 00:28:01;;;;;;;3.75;1.70;;;;;;;15.24;56.08;97231.00;5071219;28;20106;-54
2023/01/18 00:30:29;;;;;;;4.55;1.65;;;;;;;15.23;56.09;97240.09;5070172;28;20052;-54
2023/01/18 00:32:58;;;;;;;2.85;1.50;;;;;;;15.22;56.27;97265.28;5071491;28;20045;-50
2023/01/18 00:35:27;;;;;;;4.63;1.70;;;;;;;15.20;56.25;97277.25;5071371;28;20045;-50
2023/01/18 00:37:55;;;;;;;2.65;1.30;;;;;;;15.16;56.16;97284.88;5071261;28;20464;-52
2023/01/18 00:40:27;;;;;;;2.58;1.30;;;;;;;15.16;55.80;97322.47;5071360;28;20131;-54
2023/01/18 00:45:42;;;;;;;3.90;1.50;;;;;;;15.13;56.15;97363.09;5075181;28;20048;-53
2023/01/18 00:48:10;;;;;;;3.42;1.67;;;;;;;15.11;56.29;97381.25;5074944;28;20124;-52
2023/01/18 00:50:39;;;;;;;3.05;1.45;;;;;;;15.08;56.06;97387.00;5075031;28;20052;-52
2023/01/18 00:53:07;;;;;;;4.07;1.40;;;;;;;15.07;56.08;97394.22;5074965;28;20131;-50
2023/01/18 00:55:36;;;;;;;2.60;1.17;;;;;;;15.04;55.87;97402.66;5074930;28;20447;-52
2023/01/18 00:58:04;;;;;;;3.42;1.50;;;;;;;15.03;55.88;97405.53;5074730;28;20052;-51
2023/01/18 01:00:33;;;;;;;2.45;1.20;;;;;;;15.00;55.78;97393.31;5074818;28;20485;-53
2023/01/18 01:03:01;;;;;;;2.90;1.38;;;;;;;14.99;55.77;97385.47;5074928;28;20048;-52
2023/01/18 01:08:16;;;;;;;2.80;1.30;;;;;;;14.95;55.95;97392.22;5074596;28;20044;-53
2023/01/18 01:10:47;;;;;;;4.05;1.27;;;;;;;14.94;55.93;97391.38;5074608;28;20051;-54
2023/01/18 01:27:13;;;;;;;2.03;1.10;;;;;;;14.81;55.76;97354.50;5074000;28;20056;-53
2023/01/18 01:29:41;;;;;;;5.05;1.55;;;;;;;14.78;56.06;97349.53;5074240;28;20094;-52
2023/01/18 01:32:13;;;;;;;2.80;1.20;;;;;;;14.76;56.17;97335.44;5074109;28;20040;-51
2023/01/18 01:34:41;;;;;;;2.97;1.42;;;;;;;14.76;56.36;97342.66;5074132;28;20044;-54
2023/01/18 01:37:09;;;;;;;3.95;1.65;;;;;;;14.72;56.00;97339.53;5074038;28;20040;-50
2023/01/18 01:39:40;;;;;;;4.57;1.60;;;;;;;14.73;56.42;97370.72;5074032;28;20052;-53
2023/01/18 01:42:10;;;;;;;3.63;1.40;;;;;;;14.71;56.47;97386.16;5074068;28;20465;-52
2023/01/18 01:44:50;;;;;;;3.15;1.38;;;;;;;14.70;56.23;97384.50;5073966;28;20405;-52
2023/01/18 01:47:39;;;;;;;3.28;1.35;;;;;;;14.66;56.56;97388.56;5073837;28;20040;-53
2023/01/18 01:50:18;;;;;;;2.83;1.60;;;;;;;14.68;56.35;97393.78;5073874;28;20049;-54
2023/01/18 01:52:47;;;;;;;3.05;1.30;;;;;;;14.66;56.21;97388.56;5073801;28;20048;-52
2023/01/18 01:55:22;;;;;;;4.05;1.40;;;;;;;14.65;56.17;97384.22;5073107;28;20044;-51
2023/01/18 01:57:54;;;;;;;1.85;1.27;;;;;;;14.64;56.29;97393.28;5073582;28;20056;-51
2023/01/18 02:00:24;;;;;;;2.55;1.35;;;;;;;14.61;55.89;97401.72;5073730;28;20096;-53
2023/01/18 02:02:55;;;;;;;2.67;1.20;;;;;;;14.62;56.59;97398.03;5073613;28;20105;-51
2023/01/18 02:05:25;;;;;;;2.95;1.33;;;;;;;14.58;56.69;97386.84;5073529;28;20102;-52
2023/01/18 02:07:55;;;;;;;3.30;1.35;;;;;;;14.58;56.48;97386.03;5073362;28;20127;-53
2023/01/18 02:10:23;;;;;;;2.42;1.20;;;;;;;14.56;56.31;97377.31;5073374;28;20045;-52
2023/01/18 02:12:53;;;;;;;3.85;1.50;;;;;;;14.55;56.62;97391.72;5073318;28;20044;-55
2023/01/18 02:15:28;;;;;;;2.42;1.25;;;;;;;14.52;56.53;97387.59;5073469;28;20736;-52
2023/01/18 02:18:17;;;;;;;4.35;1.50;;;;;;;14.52;55.99;97402.84;5073198;28;20076;-52
2023/01/18 02:21:11;;;;;;;2.97;1.50;;;;;;;14.50;56.56;97415.63;5073247;28;20123;-53
2023/01/18 02:24:11;;;;;;;3.25;1.50;;;;;;;14.46;56.63;97431.22;5073227;28;20070;-54
2023/01/18 02:27:03;;;;;;;3.70;1.83;;;;;;;14.43;56.54;97444.97;5072873;28;20070;-52
2023/01/18 02:29:46;;;;;;;2.17;1.40;;;;;;;14.41;56.53;97443.50;5072998;28;20048;-52
2023/01/18 02:32:22;;;;;;;3.40;2.00;;;;;;;14.39;56.26;97434.81;5073020;28;20044;-51
2023/01/18 02:34:58;;;;;;;3.60;1.83;;;;;;;14.38;56.28;97438.50;5072877;28;20452;-50
2023/01/18 02:37:36;;;;;;;3.03;1.90;;;;;;;14.40;56.32;97436.47;5071420;28;20131;-51
2023/01/18 02:40:15;;;;;;;3.00;1.50;;;;;;;14.36;56.93;97440.53;5072895;28;20105;-53
2023/01/18 02:48:23;;;;;;;6.10;2.60;;;;;;;14.30;56.38;97434.91;5072667;28;20498;-50
2023/01/18 02:50:52;;;;;;;2.67;1.70;;;;;;;14.28;56.55;97428.03;5072699;28;20044;-50
2023/01/18 02:53:20;;;;;;;3.67;1.95;;;;;;;14.27;56.95;97437.94;5072626;28;20089;-51
2023/01/18 02:55:52;;;;;;;3.17;1.98;;;;;;;14.25;57.03;97437.28;5072443;28;20051;-50
2023/01/18 02:58:27;;;;;;;2.90;1.70;;;;;;;14.22;57.03;97445.72;5072365;28;20127;-53
2023/01/18 03:01:00;;;;;;;4.35;2.40;;;;;;;14.22;56.83;97437.66;5072483;28;20044;-52
2023/01/18 03:03:28;;;;;;;5.13;2.45;;;;;;;14.22;57.02;97428.78;5072450;28;20044;-54
2023/01/18 03:06:00;;;;;;;4.38;1.90;;;;;;;14.20;56.91;97420.94;5072150;28;20439;-51
2023/01/18 03:08:35;;;;;;;3.38;1.77;;;;;;;14.18;56.94;97416.75;5071802;28;20059;-54
2023/01/18 03:11:08;;;;;;;3.92;2.03;;;;;;;14.17;57.25;97426.66;5071005;28;20098;-53
2023/01/18 03:13:52;;;;;;;3.37;2.17;;;;;;;14.16;57.26;97433.03;5072418;28;20051;-52
2023/01/18 03:16:26;;;;;;;3.58;2.00;;;;;;;14.15;56.99;97431.38;5072224;28;20149;-52
2023/01/18 03:19:00;;;;;;;3.92;1.90;;;;;;;14.13;57.13;97425.38;5072020;28;20489;-53
2023/01/18 03:21:37;;;;;;;4.50;2.05;;;;;;;14.12;56.45;97418.34;5072153;28;20086;-52
2023/01/18 03:24:07;;;;;;;2.88;1.92;;;;;;;14.11;56.96;97421.22;5072109;28;20169;-54
2023/01/18 03:26:39;;;;;;;3.25;1.88;;;;;;;14.11;56.93;97416.69;5072069;28;20044;-54
2023/01/18 03:34:53;;;;;;;4.13;1.92;;;;;;;14.05;56.82;97422.75;5072031;28;20098;-52
2023/01/18 03:37:27;;;;;;;3.33;1.95;;;;;;;14.04;56.99;97424.59;5071887;28;20052;-55
2023/01/18 03:40:00;;;;;;;3.13;1.90;;;;;;;14.04;57.10;97394.31;5071823;28;20045;-52
2023/01/18 03:42:32;;;;;;;3.25;1.90;;;;;;;14.01;57.38;97389.31;5071908;28;20119;-51
2023/01/18 03:45:08;;;;;;;3.53;1.83;;;;;;;14.01;57.25;97392.00;5071929;28;20052;-52
2023/01/18 03:47:38;;;;;;;3.15;2.10;;;;;;;14.01;57.44;97408.06;5071740;28;20477;-52
2023/01/18 03:50:07;;;;;;;3.47;1.83;;;;;;;13.97;57.62;97398.72;5071757;28;20037;-51
2023/01/18 03:52:40;;;;;;;4.60;2.22;;;;;;;13.94;57.16;97393.72;5071773;28;20452;-50
2023/01/18 03:55:14;;;;;;;3.55;2.00;;;;;;;13.94;57.39;97396.41;5071887;28;20046;-55
2023/01/18 03:57:46;;;;;;;3.40;2.00;;;;;;;13.94;57.59;97394.56;5071886;28;20053;-53
2023/01/18 04:00:16;;;;;;;3.75;2.08;;;;;;;13.91;57.54;97394.94;5071728;28;20084;-52
2023/01/18 04:02:48;;;;;;;3.13;1.90;;;;;;;13.92;57.58;97401.97;5071663;28;20040;-54
2023/01/18 04:05:17;;;;;;;3.53;1.83;;;;;;;13.91;57.49;97415.53;5071844;28;20048;-52
2023/01/18 04:07:45;;;;;;;3.28;1.80;;;;;;;13.90;57.74;97417.38;5071688;28;20165;-50
2023/01/18 04:10:14;;;;;;;3.13;1.70;;;;;;;13.90;57.79;97419.25;5071610;28;20040;-53
2023/01/18 04:12:42;;;;;;;3.60;2.00;;;;;;;13.88;57.85;97419.41;5071671;28;20055;-53
2023/01/18 04:15:11;;;;;;;4.03;1.80;;;;;;;13.86;57.88;97413.41;5071605;28;20106;-52
2023/01/18 04:17:39;;;;;;;2.90;1.90;;;;;;;13.86;57.83;97410.72;5071969;28;20123;-52
2023/01/18 04:20:10;;;;;;;3.67;1.95;;;;;;;13.87;57.92;97419.59;5075442;28;20040;-53
2023/01/18 04:22:38;;;;;;;3.10;2.00;;;;;;;13.85;57.98;97427.81;5075371;28;20094;-55
2023/01/18 04:25:07;;;;;;;3.20;1.90;;;;;;;13.83;57.88;97408.41;5075432;28;20044;-53
2023/01/18 04:27:35;;;;;;;3.28;1.90;;;;;;;13.82;58.03;97389.84;5075170;28;20106;-55
2023/01/18 04:30:05;;;;;;;4.28;1.80;;;;;;;13.82;57.98;97395.19;5075309;28;20044;-53
2023/01/18 04:32:33;;;;;;;2.60;1.70;;;;;;;13.77;58.09;97384.19;5073991;28;20051;-54
2023/01/18 04:35:01;;;;;;;3.85;1.60;;;;;;;13.81;58.00;97404.25;5075244;28;20481;-53
2023/01/18 04:37:32;;;;;;;3.10;1.80;;;;;;;13.78;58.11;97399.25;5075065;28;20045;-53
2023/01/18 04:40:03;;;;;;;3.47;1.90;;;;;;;13.83;58.65;97418.28;5075075;28;20101;-52
2023/01/18 04:42:32;;;;;;;2.92;1.70;;;;;;;13.85;59.02;97437.69;5075017;28;20053;-52
2023/01/18 04:45:00;;;;;;;3.20;1.77;;;;;;;13.89;59.19;97434.44;5075096;28;20044;-55
2023/01/18 04:47:28;;;;;;;3.17;1.63;;;;;;;14.00;59.48;97452.81;5074960;28;20045;-52
2023/01/18 04:49:57;;;;;;;2.72;1.60;;;;;;;14.10;59.43;97457.91;5074931;28;20041;-53
2023/01/18 04:52:25;;;;;;;2.78;1.80;;;;;;;14.19;59.36;97448.78;5074667;28;20489;-53
2023/01/18 04:54:55;;;;;;;2.50;1.60;;;;;;;14.29;59.38;97448.50;5074839;28;20052;-52
2023/01/18 04:57:24;;;;;;;2.38;1.60;;;;;;;14.37;59.26;97442.19;5074761;28;20037;-52
2023/01/18 04:59:52;;;;;;;2.33;1.40;;;;;;;14.47;59.33;97445.47;5074684;28;20036;-55
2023/01/18 05:02:20;;;;;;;3.20;1.92;;;;;;;14.58;59.30;97429.75;5074756;28;20408;-53
2023/01/18 05:04:48;;;;;;;2.47;1.65;;;;;;;14.68;59.06;97429.47;5074609;28;20408;-50
2023/01/18 05:07:18;;;;;;;3.20;1.42;;;;;;;14.79;59.05;97453.16;5074603;28;20121;-55
2023/01/18 05:09:46;;;;;;;3.80;1.60;;;;;;;14.91;58.94;97471.44;5073337;28;20143;-52
2023/01/18 05:12:15;;;;;;;2.58;1.50;;;;;;;15.00;58.81;97481.06;5074515;28;20162;-53
2023/01/18 05:14:43;;;;;;;2.60;1.50;;;;;;;15.09;58.74;97490.69;5074520;28;20041;-52
2023/01/18 05:17:12;;;;;;;3.20;1.67;;;;;;;15.17;58.51;97499.47;5074549;28;20045;-54
2023/01/18 05:19:40;;;;;;;3.03;1.60;;;;;;;15.25;58.44;97511.97;5074294;28;20052;-53
2023/01/18 05:22:08;;;;;;;2.42;1.67;;;;;;;15.35;58.25;97509.81;5074238;28;20047;-52
2023/01/18 05:24:36;;;;;;;2.15;1.35;;;;;;;15.44;58.11;97511.34;5074417;28;20048;-52
2023/01/18 05:27:04;;;;;;;2.35;1.60;;;;;;;15.55;57.96;97509.19;5074074;28;20056;-53
2023/01/18 05:29:34;;;;;;;2.88;1.40;;;;;;;15.62;57.95;97512.78;5073325;28;20041;-53
2023/01/18 05:32:02;;;;;;;2.35;1.52;;;;;;;15.70;57.78;97499.25;5074189;28;20405;-53
2023/01/18 05:34:30;;;;;;;2.33;1.70;;;;;;;15.78;57.60;97503.66;5074067;28;20045;-53
2023/01/18 05:36:59;;;;;;;2.88;1.40;;;;;;;15.87;57.50;97516.78;5074051;28;20094;-51
2023/01/18 05:39:27;;;;;;;2.75;1.38;;;;;;;15.90;57.63;97516.41;5073961;28;20055;-54
2023/01/18 05:41:55;;;;;;;2.10;1.30;;;;;;;15.94;57.34;97509.63;5074051;28;20044;-52
2023/01/18 05:44:26;;;;;;;1.73;1.20;;;;;;;15.94;57.49;97498.88;5073999;28;20066;-52
2023/01/18 05:46:55;;;;;;;2.47;1.33;;;;;;;15.95;57.47;97500.53;5072501;28;20055;-52
2023/01/18 05:49:23;;;;;;;2.08;1.10;;;;;;;15.95;57.39;97507.78;5073629;28;20048;-52
2023/01/18 05:51:52;;;;;;;2.47;1.17;;;;;;;15.93;57.33;97516.03;5073662;28;20123;-52
2023/01/18 05:54:20;;;;;;;2.28;1.50;;;;;;;15.92;57.53;97503.63;5073707;28;20048;-53
2023/01/18 05:56:48;;;;;;;1.85;1.27;;;;;;;15.90;57.48;97494.88;5073605;28;20040;-53
2023/01/18 05:59:17;;;;;;;1.60;0.93;;;;;;;15.88;57.56;97502.31;5073492;28;20044;-51
2023/01/18 06:01:45;;;;;;;1.95;1.20;;;;;;;15.85;57.44;97489.28;5073515;28;20078;-54
2023/01/18 06:04:14;;;;;;;2.17;1.35;;;;;;;15.83;57.44;97485.97;5073516;28;20127;-53
2023/01/18 06:06:42;;;;;;;1.83;0.93;;;;;;;15.80;57.57;97474.75;5073536;28;20397;-52
2023/01/18 06:09:11;;;;;;;2.22;1.30;;;;;;;15.77;57.70;97470.59;5073539;28;20530;-52
2023/01/18 06:11:39;;;;;;;2.97;1.08;;;;;;;15.73;57.58;97488.13;5072032;28;20523;-52
2023/01/18 06:14:07;;;;;;;2.13;1.05;;;;;;;15.71;57.66;97500.91;5073220;28;20082;-54
2023/01/18 06:16:35;;;;;;;2.13;1.20;;;;;;;15.70;57.60;97515.38;5073127;28;20044;-52
2023/01/18 06:19:04;;;;;;;2.17;1.30;;;;;;;15.68;57.56;97520.09;5071778;28;20060;-51
2023/01/18 06:21:33;;;;;;;2.50;1.40;;;;;;;15.63;57.52;97503.72;5071723;28;20149;-51
2023/01/18 06:24:02;;;;;;;1.77;1.20;;;;;;;15.60;57.76;97499.56;5072857;28;20051;-51
2023/01/18 06:26:30;;;;;;;1.92;1.15;;;;;;;15.56;58.06;97503.63;5073083;28;20421;-52
2023/01/18 06:28:58;;;;;;;2.75;1.30;;;;;;;15.53;58.27;97519.28;5072733;28;20056;-53
2023/01/18 06:31:27;;;;;;;3.72;1.20;;;;;;;15.51;58.32;97532.06;5072988;28;20051;-53
2023/01/18 06:33:55;;;;;;;1.95;1.20;;;;;;;15.46;58.46;97538.84;5072796;28;20041;-53
2023/01/18 06:36:23;;;;;;;3.03;1.35;;;;;;;15.42;58.55;97536.72;5071498;28;20070;-52
2023/01/18 06:38:52;;;;;;;2.35;1.10;;;;;;;15.40;58.52;97534.22;5072621;28;20549;-53
2023/01/18 06:41:21;;;;;;;2.33;1.10;;;;;;;15.36;58.50;97508.78;5072321;28;20136;-51
2023/01/18 06:43:50;;;;;;;2.13;1.30;;;;;;;15.33;58.39;97471.53;5072494;28;20099;-52
2023/01/18 06:46:18;;;;;;;2.30;1.15;;;;;;;15.29;58.30;97443.41;5072322;28;20374;-53
2023/01/18 06:48:46;;;;;;;3.38;1.00;;;;;;;15.25;58.14;97447.50;5072359;28;20497;-52
2023/01/18 06:51:15;;;;;;;3.20;1.20;;;;;;;15.22;58.23;97485.47;5072447;28;20044;-52
2023/01/18 06:53:43;;;;;;;3.33;1.23;;;;;;;15.20;58.22;97470.56;5072320;28;20099;-52
2023/01/18 06:56:13;;;;;;;1.70;1.02;;;;;;;15.16;58.10;97460.22;5072196;28;20117;-54
2023/01/18 06:58:41;;;;;;;1.67;0.93;;;;;;;15.13;58.32;97505.38;5072362;28;20132;-54
2023/01/18 07:01:10;;;;;;;2.22;0.88;;;;;;;15.11;58.36;97547.69;5072326;28;20072;-52
2023/01/18 07:03:38;;;;;;;1.50;1.00;;;;;;;15.08;58.37;97564.19;5072308;28;20551;-54
2023/01/18 07:06:07;;;;;;;2.45;1.10;;;;;;;15.04;58.39;97569.06;5072288;28;20056;-52
2023/01/18 07:08:35;;;;;;;2.65;1.35;;;;;;;15.02;58.17;97557.69;5072140;28;20075;-53
2023/01/18 07:11:05;;;;;;;1.90;1.00;;;;;;;14.97;58.14;97565.50;5072115;28;20066;-52
2023/01/18 07:13:34;;;;;;;2.60;1.10;;;;;;;14.95;57.92;97564.00;5072047;28;20481;-53
2023/01/18 07:16:03;;;;;;;2.30;1.10;;;;;;;14.91;57.80;97554.66;5071999;28;20041;-53
2023/01/18 07:18:31;;;;;;;1.65;0.85;;;;;;;14.85;58.03;97551.69;5070819;28;20106;-52
2023/01/18 07:21:01;;;;;;;2.55;0.95;;;;;;;14.84;58.08;97560.75;5072047;28;20048;-53
2023/01/18 07:23:30;;;;;;;2.90;1.25;;;;;;;14.85;57.99;97575.00;5071945;28;20056;-55
2023/01/18 07:26:02;;;;;;;1.42;1.13;;;;;;;14.82;57.82;97586.94;5072096;28;20055;-55
2023/01/18 07:28:31;;;;;;;1.60;1.00;;;;;;;14.78;57.90;97617.84;5071760;28;20417;-54
2023/01/18 07:31:02;;;;;;;2.55;1.05;;;;;;;14.78;57.94;97638.47;5071887;28;20067;-55
2023/01/18 07:33:30;;;;;;;2.65;1.10;;;;;;;14.76;58.08;97645.84;5071241;28;20404;-55
2023/01/18 07:35:59;;;;;;;2.05;1.10;;;;;;;14.74;58.22;97640.69;5069996;28;20048;-53
2023/01/18 07:38:27;;;;;;;2.05;1.10;;;;;;;14.75;58.41;97636.97;5071121;28;20505;-56
2023/01/18 07:41:02;;;;;;;2.13;1.00;;;;;;;14.74;58.45;97632.63;5071673;28;20044;-54
2023/01/18 07:43:30;;;;;;;1.98;0.90;;;;;;;14.84;58.75;97649.31;5070716;28;20090;-52
2023/01/18 07:45:59;;;;;;;2.95;0.95;;;;;;;14.89;58.67;97664.88;5071828;28;20150;-52
2023/01/18 07:48:29;;;;;;;2.42;1.13;;;;;;;14.98;58.75;97677.19;5071527;28;20071;-53
2023/01/18 07:51:02;;;;;;;2.28;0.90;;;;;;;15.07;58.63;97683.34;5070611;28;20067;-55
2023/01/18 07:53:32;;;;;;;4.43;1.10;;;;;;;15.14;58.63;97700.34;5071124;28;20063;-53
2023/01/18 07:56:00;;;;;;;2.10;1.27;;;;;;;15.20;58.42;97696.94;5071610;28;20296;-51
2023/01/18 07:58:29;;;;;;;1.67;0.82;;;;;;;15.28;58.55;97699.56;5071633;28;20603;-54
2023/01/18 08:01:02;;;;;;;3.08;1.05;;;;;;;15.37;58.59;97706.50;5071415;28;20052;-51
2023/01/18 08:03:35;;;;;;;2.35;1.17;;;;;;;15.44;58.51;97699.38;5071544;28;20048;-54
2023/01/18 08:06:06;;;;;;;1.67;0.90;;;;;;;15.48;58.37;97702.53;5070240;28;20052;-52
2023/01/18 08:08:35;;;;;;;1.10;0.88;;;;;;;15.55;58.19;97708.84;5071543;28;20558;-53
2023/01/18 08:11:05;;;;;;;1.50;1.00;;;;;;;15.59;58.03;97720.88;5071388;28;20097;-55
2023/01/18 08:13:36;;;;;;;2.75;1.00;;;;;;;15.62;58.02;97733.13;5071407;28;20439;-55
2023/01/18 08:16:07;;;;;;;1.55;0.85;;;;;;;15.64;57.86;97741.84;5071387;28;20049;-53
2023/01/18 08:18:36;;;;;;;1.40;0.80;;;;;;;15.64;57.72;97747.22;5071385;28;20044;-55
2023/01/18 08:21:06;;;;;;;1.40;0.82;;;;;;;15.63;57.68;97751.78;5071452;28;20041;-54
2023/01/18 08:23:34;;;;;;;1.35;0.93;;;;;;;15.60;57.71;97752.13;5071342;28;20119;-58
2023/01/18 08:26:03;;;;;;;2.17;1.00;;;;;;;15.61;57.71;97769.06;5070006;28;20138;-54
2023/01/18 08:28:31;;;;;;;1.45;0.88;;;;;;;15.61;57.77;97774.44;5071205;28;20060;-55
2023/01/18 08:31:08;;;;;;;2.58;0.95;;;;;;;15.60;57.84;97775.44;5071245;28;20049;-53
2023/01/18 08:33:44;;;;;;;1.88;0.80;;;;;;;15.58;57.87;97778.31;5071336;28;20102;-52
2023/01/18 08:36:14;;;;;;;3.20;0.98;;;;;;;15.57;57.89;97787.41;5069602;28;20041;-53
2023/01/18 08:38:42;;;;;;;2.65;0.70;;;;;;;15.55;57.78;97786.75;5069919;28;20055;-53
2023/01/18 08:41:10;;;;;;;1.83;0.82;;;;;;;15.52;57.65;97772.81;5071106;28;20436;-51
2023/01/18 08:43:38;;;;;;;1.77;1.02;;;;;;;15.52;57.76;97775.50;5071271;28;20766;-52
2023/01/18 08:46:06;;;;;;;2.33;0.90;;;;;;;15.50;57.64;97783.75;5069858;28;20051;-51
2023/01/18 08:48:35;;;;;;;1.25;0.70;;;;;;;15.49;57.72;97792.00;5071230;28;20248;-52
2023/01/18 08:51:05;;;;;;;1.88;1.10;;;;;;;15.42;57.44;97787.34;5071116;28;20057;-53
2023/01/18 08:53:33;;;;;;;1.77;1.00;;;;;;;15.41;57.71;97812.56;5071122;28;20048;-53
2023/01/18 08:56:05;;;;;;;2.50;1.10;;;;;;;15.41;57.59;97817.91;5071056;28;20045;-51
2023/01/18 08:58:33;;;;;;;1.88;0.90;;;;;;;15.38;57.79;97826.34;5071020;28;20072;-54
2023/01/18 09:01:04;;;;;;;1.77;0.80;;;;;;;15.35;57.50;97834.78;5071452;28;20037;-51
2023/01/18 09:03:33;;;;;;;1.83;1.00;;;;;;;15.33;57.69;97844.84;5070986;28;20539;-51
2023/01/18 09:06:02;;;;;;;2.15;1.00;;;;;;;15.32;57.69;97853.09;5073163;28;20501;-52
2023/01/18 09:08:32;;;;;;;1.58;0.80;;;;;;;15.30;57.75;97853.28;5074604;28;20433;-51
2023/01/18 09:11:02;;;;;;;1.88;0.90;;;;;;;15.27;57.53;97842.91;5074623;28;20044;-53
2023/01/18 09:13:33;;;;;;;1.58;0.90;;;;;;;15.22;57.58;97834.53;5074506;28;20041;-52
2023/01/18 09:16:02;;;;;;;2.10;1.00;;;;;;;15.21;57.47;97848.97;5074410;28;20076;-52
2023/01/18 09:18:31;;;;;;;1.27;0.90;;;;;;;15.19;57.61;97869.81;5074336;28;20106;-50
2023/01/18 09:20:59;;;;;;;1.65;1.02;;;;;;;15.14;57.64;97872.19;5074325;28;20119;-50
2023/01/18 09:23:27;;;;;;;2.67;1.10;;;;;;;15.14;57.72;97899.88;5074399;28;20098;-52
2023/01/18 09:26:05;;;;;;;2.30;0.98;;;;;;;15.13;57.63;97913.47;5074269;28;20044;-51
2023/01/18 09:28:33;;;;;;;2.42;1.00;;;;;;;15.13;57.70;97929.59;5074081;28;20057;-52
2023/01/18 09:31:02;;;;;;;1.13;0.82;;;;;;;15.09;57.77;97939.03;5074675;28;20055;-53
2023/01/18 09:33:31;;;;;;;2.47;1.08;;;;;;;15.02;57.59;97944.25;5074127;28;20051;-51
2023/01/18 09:36:08;;;;;;;1.90;0.85;;;;;;;15.03;57.52;97964.72;5074132;28;20119;-51
2023/01/18 09:38:38;;;;;;;2.08;0.93;;;;;;;14.98;57.24;97966.28;5072621;28;20052;-51
2023/01/18 09:41:21;;;;;;;2.08;1.05;;;;;;;14.95;57.12;97972.81;5072515;28;20151;-53
2023/01/18 09:43:54;;;;;;;1.45;0.70;;;;;;;14.87;56.86;97979.06;5074006;28;20131;-51
2023/01/18 09:46:24;;;;;;;1.83;1.10;;;;;;;14.84;56.51;97997.34;5073798;28;20127;-52
2023/01/18 09:48:55;;;;;;;0.60;0.60;;;;;;;14.79;56.48;98000.56;5073928;28;20044;-51
2023/01/18 09:51:29;;;;;;;0.88;0.70;;;;;;;14.74;56.17;97992.19;5073757;28;20041;-50
2023/01/18 09:54:28;;;;;;;1.38;0.90;;;;;;;14.70;56.22;97987.34;5073618;28;20044;-50
2023/01/18 09:57:05;;;;;;;1.17;0.88;;;;;;;14.68;56.28;98005.47;5072569;28;20438;-51
2023/01/18 09:59:40;;;;;;;1.02;0.65;;;;;;;14.66;56.35;98010.16;5073609;28;20374;-53
2023/01/18 10:02:18;;;;;;;1.27;0.70;;;;;;;14.63;56.27;98008.66;5073401;28;20114;-52
2023/01/18 10:04:52;;;;;;;1.02;0.63;;;;;;;14.60;55.94;98014.38;5073678;28;20059;-53
2023/01/18 10:07:24;;;;;;;1.67;0.90;;;;;;;14.55;55.79;98012.19;5073535;28;20036;-55
2023/01/18 10:09:55;;;;;;;1.15;0.73;;;;;;;14.54;56.15;98015.91;5073391;28;20047;-52
2023/01/18 10:12:32;;;;;;;1.30;0.80;;;;;;;14.53;55.85;98016.91;5073367;28;20481;-51
2023/01/18 10:15:06;;;;;;;1.90;0.70;;;;;;;14.52;56.07;98027.81;5073308;28;20049;-54
2023/01/18 10:17:38;;;;;;;1.15;0.70;;;;;;;14.49;55.71;98030.84;5072681;28;20146;-54
2023/01/18 10:20:15;;;;;;;1.40;0.80;;;;;;;14.43;56.03;98031.47;5073117;28;20072;-53
2023/01/18 10:22:49;;;;;;;1.98;0.90;;;;;;;14.43;56.08;98036.84;5071762;28;20052;-53
2023/01/18 10:25:24;;;;;;;1.48;0.80;;;;;;;14.38;55.93;98050.78;5071684;28;20136;-52
2023/01/18 10:28:24;;;;;;;1.30;0.75;;;;;;;14.35;56.25;98066.34;5072857;28;20131;-51
2023/01/18 10:31:07;;;;;;;0.63;0.60;;;;;;;14.32;55.76;98072.91;5070670;28;20068;-52
2023/01/18 10:33:39;;;;;;;1.08;0.80;;;;;;;14.29;55.94;98073.25;5072822;28;20037;-52
2023/01/18 10:36:13;;;;;;;3.42;0.80;;;;;;;14.23;55.69;98072.06;5071359;28;20051;-52
2023/01/18 10:38:43;;;;;;;1.48;0.80;;;;;;;14.21;55.63;98060.69;5072840;28;20048;-51
2023/01/18 10:41:19;;;;;;;1.02;0.77;;;;;;;14.21;55.96;98067.88;5072743;28;20475;-54
2023/01/18 10:43:49;;;;;;;1.45;1.00;;;;;;;14.18;55.84;98068.19;5072762;28;20051;-53
2023/01/18 10:46:18;;;;;;;1.00;0.80;;;;;;;14.17;55.87;98079.94;5072711;28;20456;-53
2023/01/18 10:48:48;;;;;;;1.83;1.02;;;;;;;14.15;55.74;98096.19;5072875;28;20153;-53
2023/01/18 10:51:45;;;;;;;1.13;0.80;;;;;;;14.11;55.91;98108.28;5072588;28;20041;-52
2023/01/18 10:54:23;;;;;;;1.55;0.80;;;;;;;14.07;55.62;98106.91;5059569;28;20391;-53
2023/01/18 10:57:01;;;;;;;1.42;0.70;;;;;;;14.09;55.97;98115.63;5072376;28;20512;-52
2023/01/18 10:59:37;;;;;;;1.70;1.00;;;;;;;14.08;55.90;98118.47;5072606;28;20068;-52
2023/01/18 11:02:19;;;;;;;1.08;0.77;;;;;;;14.07;55.85;98128.34;5072236;28;20447;-52
2023/01/18 11:04:55;;;;;;;1.80;0.80;;;;;;;14.05;55.68;98135.72;5072255;28;20573;-53
2023/01/18 11:07:25;;;;;;;1.65;0.88;;;;;;;14.02;55.79;98138.75;5070909;28;20073;-53
2023/01/18 11:09:58;;;;;;;0.98;0.75;;;;;;;14.00;55.62;98135.41;5072217;28;20048;-52
2023/01/18 11:12:36;;;;;;;1.20;0.82;;;;;;;14.00;55.71;98143.44;5070780;28;20068;-54
2023/01/18 11:15:23;;;;;;;2.13;1.00;;;;;;;13.98;55.78;98145.41;5072182;28;20045;-52
2023/01/18 11:18:15;;;;;;;1.38;0.73;;;;;;;13.96;55.77;98148.28;5072169;28;20052;-52
2023/01/18 11:20:48;;;;;;;1.90;0.90;;;;;;;13.94;55.90;98160.16;5057556;28;20102;-53
2023/01/18 11:23:21;;;;;;;1.35;0.80;;;;;;;13.91;55.87;98165.88;5071965;28;20048;-56
2023/01/18 11:25:59;;;;;;;1.77;1.10;;;;;;;13.89;55.93;98166.00;5071920;28;20450;-53
2023/01/18 11:28:34;;;;;;;1.73;0.88;;;;;;;13.88;56.16;98176.88;5071057;28;20057;-51
2023/01/18 11:31:11;;;;;;;1.88;1.00;;;;;;;13.88;56.03;98187.59;5070615;28;20048;-53
2023/01/18 11:33:49;;;;;;;2.25;0.90;;;;;;;13.86;56.34;98195.81;5070732;28;20053;-52
2023/01/18 11:36:19;;;;;;;1.33;0.82;;;;;;;13.88;56.28;98190.28;5071748;28;20051;-52
2023/01/18 11:38:48;;;;;;;1.50;1.00;;;;;;;13.87;56.31;98193.97;5071808;28;20045;-51
2023/01/18 11:41:19;;;;;;;2.55;1.10;;;;;;;13.99;56.12;98195.34;5071873;28;20047;-52
2023/01/18 11:44:13;;;;;;;1.20;0.80;;;;;;;14.00;56.33;98205.94;5071894;28;20070;-52
2023/01/18 11:46:47;;;;;;;1.60;1.00;;;;;;;14.06;56.60;98207.09;5071626;28;20048;-53
2023/01/18 11:49:24;;;;;;;1.20;0.98;;;;;;;14.07;56.71;98214.13;5071582;28;20120;-54
2023/01/18 11:52:00;;;;;;;1.13;0.80;;;;;;;14.16;56.50;98212.31;5071980;28;20055;-52
2023/01/18 11:54:37;;;;;;;1.40;1.10;;;;;;;14.23;56.57;98218.69;5070326;28;20099;-54
2023/01/18 11:57:09;;;;;;;1.63;1.00;;;;;;;14.26;56.62;98229.94;5071583;28;20094;-52
2023/01/18 11:59:41;;;;;;;1.35;0.93;;;;;;;14.35;56.56;98232.63;5070233;28;20049;-55
2023/01/18 12:02:44;;;;;;;1.95;1.30;;;;;;;14.37;56.66;98236.81;5071582;28;20045;-53
2023/01/18 12:05:27;;;;;;;1.67;1.20;;;;;;;14.39;56.60;98255.44;5071640;28;20098;-53
2023/01/18 12:08:10;;;;;;;1.80;0.90;;;;;;;14.36;56.63;98255.75;5071367;28;20052;-55
2023/01/18 12:10:52;;;;;;;1.63;1.05;;;;;;;14.35;56.72;98248.72;5071399;28;20447;-52
2023/01/18 12:13:34;;;;;;;1.80;1.10;;;;;;;14.40;56.63;98260.66;5071339;28;20055;-54
2023/01/18 12:16:17;;;;;;;2.55;1.08;;;;;;;14.41;56.65;98256.13;5071598;28;20473;-55
2023/01/18 12:19:22;;;;;;;1.52;1.08;;;;;;;14.41;56.73;98264.16;5071323;28;20059;-53
2023/01/18 12:22:07;;;;;;;1.70;1.00;;;;;;;14.38;56.67;98269.84;5067757;28;20053;-52
2023/01/18 12:24:49;;;;;;;2.05;1.13;;;;;;;14.37;56.86;98282.41;5071276;28;20044;-53
2023/01/18 12:27:29;;;;;;;1.85;1.20;;;;;;;14.37;56.80;98284.25;5071189;28;20080;-52